Time;durP1;ratioP1;P1;durP2;ratioP2;P2;SDS_P1;SDS_P2;PMS_P1;PMS_P2;Temp;Humidity;BMP_temperature;BMP_pressure;BME280_temperature;BME280_humidity;BME280_pressure;Samples;Min_cycle;Max_cycle;Signal;HPM_P1;HPM_P2
2022/01/15 00:01:33;;;;;;;27.03;17.73;;;;;;;-2.02;100.00;99586.66;5103619;28;20223;-72
2022/01/15 00:03:59;;;;;;;24.37;17.53;;;;;;;-2.06;100.00;99572.81;5100079;28;20241;-72
2022/01/15 00:06:26;;;;;;;24.33;17.03;;;;;;;-2.07;100.00;99583.19;5097920;28;20218;-71
2022/01/15 00:08:52;;;;;;;27.53;17.17;;;;;;;-2.02;100.00;99571.09;5101251;28;20210;-72
2022/01/15 00:11:19;;;;;;;24.37;17.10;;;;;;;-2.05;100.00;99576.25;5104903;28;20206;-72
2022/01/15 00:13:54;;;;;;;25.43;17.97;;;;;;;-1.96;100.00;99565.94;5102553;28;20299;-72
2022/01/15 00:16:30;;;;;;;27.53;18.43;;;;;;;-2.00;100.00;99569.38;5105561;28;20430;-72
2022/01/15 00:19:05;;;;;;;25.97;19.03;;;;;;;-1.71;100.00;99563.41;5102223;28;20305;-72
2022/01/15 00:21:31;;;;;;;28.03;18.23;;;;;;;-1.82;100.00;99566.84;5101455;28;20212;-72
2022/01/15 00:23:58;;;;;;;24.60;17.40;;;;;;;-1.83;100.00;99567.69;5105143;28;20213;-72
2022/01/15 00:26:24;;;;;;;29.07;19.17;;;;;;;-1.92;100.00;99565.06;5105142;28;20666;-72
2022/01/15 00:28:52;;;;;;;27.50;19.13;;;;;;;-1.92;100.00;99567.66;5096423;28;20219;-72
2022/01/15 00:31:19;;;;;;;27.70;19.23;;;;;;;-1.98;100.00;99563.34;5098167;28;20237;-72
2022/01/15 00:33:45;;;;;;;27.73;18.57;;;;;;;-2.07;100.00;99557.28;5096830;28;20215;-72
2022/01/15 00:36:12;;;;;;;30.53;19.97;;;;;;;-2.11;100.00;99560.69;5096199;28;20210;-72
2022/01/15 00:38:39;;;;;;;28.27;18.77;;;;;;;-2.11;100.00;99550.34;5096307;28;20225;-72
2022/01/15 00:41:05;;;;;;;29.50;20.17;;;;;;;-2.12;100.00;99559.84;5098048;28;20217;-72
2022/01/15 00:43:32;;;;;;;25.00;17.97;;;;;;;-2.10;100.00;99562.44;5097203;28;20217;-72
2022/01/15 00:45:59;;;;;;;28.23;19.73;;;;;;;-2.15;100.00;99558.97;5096056;28;20682;-72
2022/01/15 00:48:26;;;;;;;25.13;17.70;;;;;;;-2.17;100.00;99563.28;5096162;28;20237;-72
2022/01/15 00:50:53;;;;;;;27.83;17.33;;;;;;;-2.19;100.00;99562.41;5097530;28;20224;-72
2022/01/15 00:53:19;;;;;;;24.47;16.23;;;;;;;-2.21;100.00;99552.03;5097396;28;20216;-72
2022/01/15 00:55:46;;;;;;;26.47;17.17;;;;;;;-2.25;100.00;99557.22;5096039;28;20210;-72
2022/01/15 00:58:13;;;;;;;23.90;16.50;;;;;;;-2.26;100.00;99555.47;5093998;28;20822;-72
2022/01/15 01:00:40;;;;;;;25.63;16.60;;;;;;;-2.23;100.00;99560.66;5096572;28;20702;-72
2022/01/15 01:03:08;;;;;;;26.17;18.20;;;;;;;-2.21;100.00;99570.16;5097640;28;20213;-72
2022/01/15 01:05:34;;;;;;;26.10;17.97;;;;;;;-2.20;100.00;99558.94;5095702;28;20221;-72
2022/01/15 01:08:00;;;;;;;26.30;17.83;;;;;;;-2.16;100.00;99557.22;5095847;28;20244;-72
2022/01/15 01:10:51;;;;;;;27.37;17.30;;;;;;;-2.22;100.00;99557.19;5100000;28;20213;-72
2022/01/15 01:22:26;;;;;;;25.27;16.80;;;;;;;-2.56;100.00;99552.75;5102936;28;20238;-72
2022/01/15 01:24:38;;;;;;;23.60;17.17;;;;;;;-2.60;100.00;99551.00;5100129;28;20252;-72
2022/01/15 01:27:10;;;;;;;23.27;15.80;;;;;;;-2.63;100.00;99553.59;5104547;28;20246;-72
2022/01/15 01:29:48;;;;;;;25.80;15.97;;;;;;;-2.73;100.00;99541.44;5102126;28;20695;-72
2022/01/15 01:32:31;;;;;;;24.17;16.70;;;;;;;-2.82;100.00;99537.09;5100893;28;20621;-72
2022/01/15 01:35:06;;;;;;;26.23;15.80;;;;;;;-2.83;100.00;99537.94;5098568;28;20244;-72
2022/01/15 01:37:37;;;;;;;21.43;15.73;;;;;;;-2.88;100.00;99547.41;5101628;28;20216;-72
2022/01/15 01:40:17;;;;;;;26.27;16.67;;;;;;;-2.87;100.00;99538.78;5100864;28;20218;-72
2022/01/15 01:42:53;;;;;;;25.33;15.77;;;;;;;-2.86;100.00;99537.06;5098520;28;20217;-72
2022/01/15 01:45:20;;;;;;;22.43;15.83;;;;;;;-2.87;100.00;99543.09;5108268;28;20211;-72
2022/01/15 01:47:46;;;;;;;22.67;16.23;;;;;;;-2.90;100.00;99540.47;5100499;28;20240;-72
2022/01/15 01:50:17;;;;;;;25.33;17.57;;;;;;;-2.87;100.00;99533.59;5100423;28;20215;-72
2022/01/15 01:52:47;;;;;;;24.47;16.63;;;;;;;-2.80;100.00;99542.28;5104430;28;20224;-72
2022/01/15 01:55:14;;;;;;;27.10;18.20;;;;;;;-2.78;100.00;99541.44;5101337;28;20222;-72
2022/01/15 01:57:42;;;;;;;26.03;18.13;;;;;;;-2.67;100.00;99532.00;5100467;28;20211;-72
2022/01/15 02:00:11;;;;;;;21.93;16.87;;;;;;;-2.64;100.00;99532.00;5105451;28;20222;-72
2022/01/15 02:02:37;;;;;;;24.97;17.60;;;;;;;-2.55;100.00;99544.13;5107310;28;20207;-72
2022/01/15 02:05:04;;;;;;;26.37;18.13;;;;;;;-2.47;100.00;99534.66;5107260;28;20219;-72
2022/01/15 02:07:32;;;;;;;27.07;16.60;;;;;;;-2.45;100.00;99533.81;5106367;28;20248;-72
2022/01/15 02:09:59;;;;;;;26.20;17.37;;;;;;;-2.42;100.00;99538.16;5107722;28;20223;-72
2022/01/15 02:12:26;;;;;;;23.73;17.07;;;;;;;-2.43;100.00;99531.25;5105244;28;20224;-72
2022/01/15 02:14:52;;;;;;;26.43;18.07;;;;;;;-2.47;100.00;99529.50;5099001;28;20218;-72
2022/01/15 02:17:20;;;;;;;24.80;17.50;;;;;;;-2.41;100.00;99524.34;5097942;28;20222;-72
2022/01/15 02:20:09;;;;;;;27.90;17.80;;;;;;;-2.36;100.00;99522.63;5100682;28;20242;-72
2022/01/15 02:25:20;;;;;;;26.37;17.10;;;;;;;-2.40;100.00;99515.75;5100702;28;20224;-72
2022/01/15 02:27:47;;;;;;;27.33;18.43;;;;;;;-2.53;100.00;99508.75;5099662;28;20237;-72
2022/01/15 02:30:14;;;;;;;24.57;17.73;;;;;;;-2.49;100.00;99520.88;5098419;28;20252;-72
2022/01/15 02:32:41;;;;;;;23.23;17.00;;;;;;;-2.50;100.00;99503.63;5098535;28;20259;-72
2022/01/15 02:35:12;;;;;;;26.93;17.40;;;;;;;-2.57;100.00;99509.63;5100181;28;20217;-72
2022/01/15 02:37:39;;;;;;;22.47;15.90;;;;;;;-2.60;100.00;99507.88;5099235;28;20210;-72
2022/01/15 02:40:09;;;;;;;24.60;15.67;;;;;;;-2.62;100.00;99504.44;5098449;28;20225;-72
2022/01/15 02:42:36;;;;;;;24.53;15.77;;;;;;;-2.51;100.00;99507.06;5096957;28;20600;-72
2022/01/15 02:45:04;;;;;;;21.00;14.93;;;;;;;-2.50;100.00;99508.78;5100784;28;20223;-72
2022/01/15 02:50:16;;;;;;;22.17;13.97;;;;;;;-2.35;100.00;99493.28;5087898;28;20609;-72
2022/01/15 02:52:42;;;;;;;25.17;15.00;;;;;;;-2.29;100.00;99504.56;5098825;28;20224;-72
2022/01/15 02:55:10;;;;;;;22.20;15.03;;;;;;;-2.24;100.00;99502.84;5100416;28;20693;-72
2022/01/15 02:57:36;;;;;;;24.07;15.73;;;;;;;-2.25;100.00;99490.75;5098063;28;20215;-72
2022/01/15 03:00:04;;;;;;;21.83;16.20;;;;;;;-2.30;100.00;99496.78;5106038;28;20216;-72
2022/01/15 03:02:33;;;;;;;22.30;15.73;;;;;;;-2.37;100.00;99488.13;5102887;28;20222;-72
2022/01/15 03:04:59;;;;;;;23.27;16.00;;;;;;;-2.36;100.00;99484.69;5105045;28;20215;-72
2022/01/15 03:07:27;;;;;;;25.03;16.73;;;;;;;-2.46;100.00;99480.31;5107039;28;20243;-72
2022/01/15 03:09:53;;;;;;;22.13;15.70;;;;;;;-2.45;100.00;99476.88;5102890;28;20250;-72
2022/01/15 03:12:20;;;;;;;22.70;15.80;;;;;;;-2.46;100.00;99469.97;5097901;28;20667;-72
2022/01/15 03:14:48;;;;;;;22.43;15.90;;;;;;;-2.47;100.00;99462.19;5100325;28;20206;-72
2022/01/15 03:17:15;;;;;;;22.93;16.40;;;;;;;-2.58;100.00;99463.91;5097952;28;20219;-72
2022/01/15 03:19:41;;;;;;;22.83;15.57;;;;;;;-2.57;100.00;99463.03;5096928;28;20217;-72
2022/01/15 03:22:08;;;;;;;22.33;15.90;;;;;;;-2.60;100.00;99465.59;5097331;28;20693;-71
2022/01/15 03:24:36;;;;;;;25.43;17.73;;;;;;;-2.64;100.00;99459.56;5108474;28;20697;-72
2022/01/15 03:27:02;;;;;;;28.27;15.80;;;;;;;-2.60;100.00;99460.44;5100516;28;20679;-72
2022/01/15 03:29:29;;;;;;;25.73;17.00;;;;;;;-2.59;100.00;99455.25;5102125;28;20236;-72
2022/01/15 03:31:55;;;;;;;24.67;17.27;;;;;;;-2.57;100.00;99455.28;5104648;28;20699;-72
2022/01/15 03:34:22;;;;;;;22.53;15.50;;;;;;;-2.57;100.00;99457.88;5100937;28;20236;-72
2022/01/15 03:36:48;;;;;;;23.90;16.13;;;;;;;-2.51;100.00;99461.31;5098915;28;20216;-72
2022/01/15 03:39:14;;;;;;;23.50;16.37;;;;;;;-2.49;100.00;99453.56;5101271;28;20219;-72
2022/01/15 03:41:42;;;;;;;24.10;17.17;;;;;;;-2.57;100.00;99460.44;5104364;28;20213;-72
2022/01/15 03:44:09;;;;;;;24.13;16.30;;;;;;;-2.55;100.00;99449.25;5101206;28;20317;-72
2022/01/15 03:46:35;;;;;;;21.97;16.17;;;;;;;-2.49;100.00;99448.41;5100670;28;20579;-72
2022/01/15 03:49:02;;;;;;;24.67;16.47;;;;;;;-2.45;100.00;99443.22;5100834;28;20243;-73
2022/01/15 03:51:29;;;;;;;23.93;16.10;;;;;;;-2.48;100.00;99439.75;5103892;28;20207;-72
2022/01/15 03:53:55;;;;;;;22.83;15.97;;;;;;;-2.47;100.00;99436.31;5101568;28;20212;-72
2022/01/15 03:56:22;;;;;;;24.57;16.03;;;;;;;-2.46;100.00;99435.47;5100530;28;20578;-72
2022/01/15 03:58:50;;;;;;;25.37;16.00;;;;;;;-2.53;100.00;99429.41;5100262;28;20214;-72
2022/01/15 04:01:16;;;;;;;25.43;17.10;;;;;;;-2.45;100.00;99432.03;5095100;28;20582;-72
2022/01/15 04:03:42;;;;;;;28.03;18.60;;;;;;;-2.38;100.00;99431.19;5099339;28;20224;-72
2022/01/15 04:06:09;;;;;;;28.63;19.47;;;;;;;-2.42;100.00;99437.19;5097016;28;20213;-72
2022/01/15 04:08:35;;;;;;;25.50;16.93;;;;;;;-2.44;100.00;99431.16;5096952;28;20600;-72
2022/01/15 04:11:02;;;;;;;32.20;20.03;;;;;;;-2.35;100.00;99436.34;5102948;28;20221;-72
2022/01/15 04:13:28;;;;;;;26.37;18.60;;;;;;;-2.32;100.00;99428.59;5101854;28;20219;-72
2022/01/15 04:15:57;;;;;;;28.13;19.50;;;;;;;-2.33;100.00;99429.47;5107608;28;20223;-72
2022/01/15 04:18:24;;;;;;;26.47;18.07;;;;;;;-2.33;100.00;99434.63;5099970;28;20300;-72
2022/01/15 04:20:51;;;;;;;31.37;18.93;;;;;;;-2.35;100.00;99426.88;5102839;28;20221;-72
2022/01/15 04:23:18;;;;;;;26.93;18.00;;;;;;;-2.37;100.00;99430.31;5101850;28;20629;-72
2022/01/15 04:25:44;;;;;;;25.07;17.33;;;;;;;-2.39;100.00;99429.44;5099898;28;20221;-72
2022/01/15 04:28:12;;;;;;;25.53;17.80;;;;;;;-2.56;100.00;99432.00;5097999;28;20230;-72
2022/01/15 04:30:40;;;;;;;24.33;18.17;;;;;;;-2.64;100.00;99433.69;5102455;28;20244;-72
2022/01/15 04:33:08;;;;;;;26.03;17.73;;;;;;;-2.80;100.00;99426.75;5101524;28;20222;-72
2022/01/15 04:35:35;;;;;;;22.30;16.17;;;;;;;-2.88;100.00;99433.59;5099554;28;20213;-72
2022/01/15 04:38:06;;;;;;;27.77;18.70;;;;;;;-2.92;100.00;99430.97;5099240;28;20218;-72
2022/01/15 04:40:32;;;;;;;21.13;15.90;;;;;;;-2.86;100.00;99431.00;5103002;28;20299;-72
2022/01/15 04:42:59;;;;;;;24.83;17.50;;;;;;;-2.96;100.00;99429.22;5101661;28;20216;-72
2022/01/15 04:45:25;;;;;;;24.73;16.03;;;;;;;-2.98;100.00;99426.66;5099433;28;20222;-71
2022/01/15 04:47:52;;;;;;;25.00;16.60;;;;;;;-3.04;100.00;99431.81;5098974;28;20230;-72
2022/01/15 04:50:20;;;;;;;22.73;16.77;;;;;;;-3.09;100.00;99433.50;5102211;28;20211;-71
2022/01/15 04:52:47;;;;;;;26.03;16.53;;;;;;;-3.05;100.00;99439.53;5101706;28;20214;-71
2022/01/15 04:55:15;;;;;;;22.53;16.20;;;;;;;-3.10;100.00;99436.94;5097704;28;20209;-72
2022/01/15 04:57:42;;;;;;;21.83;15.20;;;;;;;-3.20;100.00;99435.16;5099344;28;20224;-72
2022/01/15 05:00:12;;;;;;;25.33;16.90;;;;;;;-3.24;100.00;99433.41;5102241;28;20221;-72
2022/01/15 05:02:42;;;;;;;24.33;17.03;;;;;;;-3.24;100.00;99442.91;5100950;28;20216;-71
2022/01/15 05:05:09;;;;;;;26.33;15.93;;;;;;;-3.22;100.00;99436.00;5099147;28;20220;-72
2022/01/15 05:07:37;;;;;;;20.63;15.30;;;;;;;-3.24;100.00;99435.13;5098732;28;20216;-72
2022/01/15 05:10:05;;;;;;;21.83;16.57;;;;;;;-3.22;100.00;99436.00;5097353;28;20241;-72
2022/01/15 05:12:39;;;;;;;23.00;16.73;;;;;;;-3.24;100.00;99435.13;5100708;28;20214;-72
2022/01/15 05:15:07;;;;;;;23.37;17.63;;;;;;;-3.21;100.00;99435.13;5099043;28;20303;-72
2022/01/15 05:17:33;;;;;;;25.70;18.00;;;;;;;-3.20;100.00;99434.28;5099672;28;20602;-72
2022/01/15 05:20:00;;;;;;;22.60;16.97;;;;;;;-3.19;100.00;99443.78;5100666;28;20218;-72
2022/01/15 05:22:26;;;;;;;27.10;18.43;;;;;;;-3.23;100.00;99442.91;5099705;28;20276;-71
2022/01/15 05:24:54;;;;;;;26.43;19.50;;;;;;;-3.15;100.00;99448.09;5098620;28;20223;-72
2022/01/15 05:27:20;;;;;;;29.30;19.03;;;;;;;-3.15;100.00;99448.09;5098933;28;20216;-72
2022/01/15 05:29:48;;;;;;;27.23;19.30;;;;;;;-3.15;100.00;99448.09;5106256;28;20240;-72
2022/01/15 05:32:14;;;;;;;26.60;19.73;;;;;;;-3.10;100.00;99449.88;5099879;28;20221;-72
2022/01/15 05:34:41;;;;;;;26.00;19.20;;;;;;;-3.13;100.00;99446.41;5098768;28;20215;-72
2022/01/15 05:37:07;;;;;;;25.00;18.87;;;;;;;-3.12;100.00;99448.13;5098902;28;20210;-71
2022/01/15 05:39:34;;;;;;;28.83;20.67;;;;;;;-3.18;100.00;99438.59;5095428;28;20216;-72
2022/01/15 05:42:02;;;;;;;31.97;20.73;;;;;;;-3.07;100.00;99443.88;5097224;28;20695;-72
2022/01/15 05:44:28;;;;;;;26.80;19.50;;;;;;;-3.06;100.00;99450.75;5098484;28;20220;-72
2022/01/15 05:46:55;;;;;;;27.67;19.63;;;;;;;-3.06;100.00;99448.16;5098084;28;20283;-71
2022/01/15 05:49:21;;;;;;;30.87;20.33;;;;;;;-3.09;100.00;99445.56;5099608;28;20259;-72
2022/01/15 05:51:48;;;;;;;25.93;19.90;;;;;;;-3.07;100.00;99449.03;5101187;28;20243;-72
2022/01/15 05:54:14;;;;;;;29.90;20.20;;;;;;;-3.08;100.00;99455.03;5100368;28;20305;-72
2022/01/15 05:56:41;;;;;;;32.20;20.90;;;;;;;-3.03;100.00;99443.00;5099229;28;20670;-72
2022/01/15 05:59:10;;;;;;;28.10;19.13;;;;;;;-2.98;100.00;99446.47;5099141;28;20671;-72
2022/01/15 06:01:38;;;;;;;32.57;21.23;;;;;;;-2.97;100.00;99448.19;5100449;28;20219;-72
2022/01/15 06:04:05;;;;;;;36.23;21.00;;;;;;;-3.01;100.00;99443.88;5100354;28;20223;-71
2022/01/15 06:06:31;;;;;;;29.67;20.27;;;;;;;-2.94;100.00;99445.66;5099404;28;20217;-72
2022/01/15 06:08:58;;;;;;;35.20;21.00;;;;;;;-2.93;100.00;99444.78;5099115;28;20237;-72
2022/01/15 06:11:24;;;;;;;30.57;21.10;;;;;;;-3.02;100.00;99450.78;5105011;28;20204;-71
2022/01/15 06:13:51;;;;;;;32.70;20.77;;;;;;;-3.11;100.00;99439.50;5104740;28;20217;-71
2022/01/15 06:16:20;;;;;;;31.67;20.83;;;;;;;-3.06;100.00;99443.00;5108053;28;20210;-71
2022/01/15 06:18:46;;;;;;;30.37;20.07;;;;;;;-3.14;100.00;99439.47;5105003;28;20687;-72
2022/01/15 06:21:13;;;;;;;29.30;19.30;;;;;;;-3.14;100.00;99439.47;5103910;28;20225;-72
2022/01/15 06:23:40;;;;;;;31.13;20.13;;;;;;;-3.17;100.00;99440.31;5105817;28;20612;-71
2022/01/15 06:26:06;;;;;;;29.73;21.30;;;;;;;-3.18;100.00;99443.78;5107890;28;20236;-71
2022/01/15 06:28:33;;;;;;;28.83;20.43;;;;;;;-3.18;100.00;99438.59;5105390;28;20235;-71
2022/01/15 06:30:59;;;;;;;35.47;21.83;;;;;;;-3.19;100.00;99436.03;5103244;28;20242;-71
2022/01/15 06:33:27;;;;;;;32.60;21.47;;;;;;;-3.18;100.00;99442.94;5104185;28;20211;-71
2022/01/15 06:35:54;;;;;;;35.10;21.83;;;;;;;-3.17;100.00;99444.66;5106186;28;20215;-71
2022/01/15 06:38:20;;;;;;;30.13;19.70;;;;;;;-3.14;100.00;99444.66;5103446;28;20218;-71
2022/01/15 06:40:47;;;;;;;32.20;20.40;;;;;;;-3.14;100.00;99439.47;5102048;28;20215;-71
2022/01/15 06:43:13;;;;;;;31.20;20.93;;;;;;;-3.16;100.00;99436.91;5103286;28;20209;-71
2022/01/15 06:45:40;;;;;;;30.27;20.10;;;;;;;-3.20;100.00;99436.88;5106661;28;20219;-71
2022/01/15 06:48:06;;;;;;;30.33;20.43;;;;;;;-3.20;100.00;99431.69;5101373;28;20682;-71
2022/01/15 06:50:36;;;;;;;33.57;21.10;;;;;;;-3.27;100.00;99442.88;5103977;28;20699;-71
2022/01/15 06:53:03;;;;;;;31.57;20.53;;;;;;;-3.30;100.00;99438.53;5103561;28;20212;-71
2022/01/15 06:55:29;;;;;;;32.10;20.53;;;;;;;-3.30;100.00;99422.19;5105845;28;20592;-71
2022/01/15 06:57:56;;;;;;;34.03;20.57;;;;;;;-3.32;100.00;99422.16;5105031;28;20227;-71
2022/01/15 07:00:24;;;;;;;33.13;21.10;;;;;;;-3.29;100.00;99423.91;5102139;28;20268;-71
2022/01/15 07:02:50;;;;;;;33.80;22.53;;;;;;;-3.33;100.00;99432.47;5102992;28;20270;-71
2022/01/15 07:05:20;;;;;;;32.67;20.60;;;;;;;-3.33;100.00;99427.31;5104342;28;20216;-71
2022/01/15 07:07:47;;;;;;;35.87;22.17;;;;;;;-3.36;100.00;99427.31;5104610;28;20218;-72
2022/01/15 07:10:15;;;;;;;36.13;22.80;;;;;;;-3.38;100.00;99421.25;5101724;28;20236;-71
2022/01/15 07:12:41;;;;;;;36.50;24.20;;;;;;;-3.40;100.00;99426.44;5099696;28;20213;-71
2022/01/15 07:15:09;;;;;;;35.50;22.23;;;;;;;-3.38;100.00;99426.41;5096836;28;20687;-71
2022/01/15 07:17:41;;;;;;;34.97;21.93;;;;;;;-3.43;100.00;99421.22;5097044;28;20214;-72
2022/01/15 07:20:09;;;;;;;37.50;22.73;;;;;;;-3.47;100.00;99421.22;5096805;28;20222;-72
2022/01/15 07:22:35;;;;;;;40.80;24.33;;;;;;;-3.51;100.00;99416.88;5099043;28;20218;-71
2022/01/15 07:25:04;;;;;;;37.07;21.63;;;;;;;-3.55;100.00;99415.13;5096927;28;20216;-72
2022/01/15 07:27:30;;;;;;;35.80;21.43;;;;;;;-3.57;100.00;99422.88;5096568;28;20222;-72
2022/01/15 07:29:57;;;;;;;30.90;20.57;;;;;;;-3.59;100.00;99424.59;5059323;28;1056108;-71
2022/01/15 07:32:23;;;;;;;39.67;22.80;;;;;;;-3.66;100.00;99414.19;5098280;28;20221;-72
2022/01/15 07:34:49;;;;;;;37.80;23.37;;;;;;;-3.66;100.00;99416.78;5097467;28;20582;-72
2022/01/15 07:37:16;;;;;;;36.70;23.50;;;;;;;-3.66;100.00;99416.78;5097540;28;20218;-72
2022/01/15 07:39:43;;;;;;;34.97;22.73;;;;;;;-3.66;100.00;99416.78;5097558;28;20215;-72
2022/01/15 07:42:11;;;;;;;36.03;22.33;;;;;;;-3.71;100.00;99413.28;5100024;28;20210;-72
2022/01/15 07:44:38;;;;;;;34.57;23.30;;;;;;;-3.73;100.00;99417.59;5098309;28;20211;-72
2022/01/15 07:47:05;;;;;;;36.33;22.80;;;;;;;-3.72;100.00;99417.59;5098650;28;20214;-72
2022/01/15 07:49:32;;;;;;;36.63;22.33;;;;;;;-3.75;100.00;99411.53;5097363;28;20243;-72
2022/01/15 07:51:59;;;;;;;37.07;21.73;;;;;;;-3.69;100.00;99411.56;5100284;28;20210;-72
2022/01/15 07:54:25;;;;;;;34.33;21.70;;;;;;;-3.70;100.00;99407.28;5097355;28;20208;-72
2022/01/15 07:56:54;;;;;;;37.00;22.70;;;;;;;-3.69;100.00;99406.41;5096475;28;20217;-72
2022/01/15 07:59:22;;;;;;;31.70;21.07;;;;;;;-3.67;100.00;99409.88;5102041;28;20223;-72
2022/01/15 08:01:49;;;;;;;32.77;20.43;;;;;;;-3.65;100.00;99397.84;5100611;28;20224;-72
2022/01/15 08:04:15;;;;;;;35.03;22.87;;;;;;;-3.57;100.00;99401.31;5102790;28;20254;-73
2022/01/15 08:06:42;;;;;;;36.63;21.83;;;;;;;-3.54;100.00;99396.19;5100275;28;20219;-73
2022/01/15 08:09:09;;;;;;;37.60;22.60;;;;;;;-3.57;100.00;99396.16;5103596;28;20229;-72
2022/01/15 08:11:36;;;;;;;35.03;21.50;;;;;;;-3.60;100.00;99386.66;5100233;28;20219;-72
2022/01/15 08:14:02;;;;;;;32.73;22.47;;;;;;;-3.51;100.00;99394.50;5106085;28;20213;-72
2022/01/15 08:16:30;;;;;;;32.17;20.70;;;;;;;-3.46;100.00;99394.50;5105263;28;20210;-72
2022/01/15 08:18:57;;;;;;;33.60;21.50;;;;;;;-3.44;100.00;99393.66;5101623;28;20215;-72
2022/01/15 08:21:24;;;;;;;32.60;21.47;;;;;;;-3.35;100.00;99392.84;5101562;28;20690;-72
2022/01/15 08:23:50;;;;;;;32.87;21.67;;;;;;;-3.27;100.00;99396.34;5097795;28;20696;-72
2022/01/15 08:26:17;;;;;;;29.60;19.83;;;;;;;-3.22;100.00;99402.41;5099677;28;20216;-72
2022/01/15 08:28:44;;;;;;;29.43;20.77;;;;;;;-3.18;100.00;99393.81;5096581;28;20702;-72
2022/01/15 08:31:11;;;;;;;35.93;25.17;;;;;;;-3.07;100.00;99400.75;5098993;28;20244;-72
2022/01/15 08:33:39;;;;;;;38.60;26.47;;;;;;;-2.94;100.00;99392.19;5096988;28;20222;-72
2022/01/15 08:36:06;;;;;;;35.17;24.70;;;;;;;-2.83;100.00;99400.84;5096522;28;20215;-72
2022/01/15 08:38:32;;;;;;;35.10;24.03;;;;;;;-2.73;100.00;99393.97;5096419;28;20224;-72
2022/01/15 08:40:59;;;;;;;31.50;21.60;;;;;;;-2.62;100.00;99394.88;5098361;28;20588;-72
2022/01/15 08:43:25;;;;;;;29.73;21.13;;;;;;;-2.52;100.00;99391.47;5097038;28;20213;-72
2022/01/15 08:45:52;;;;;;;28.67;19.57;;;;;;;-2.47;100.00;99393.19;5096471;28;20212;-72
2022/01/15 08:48:19;;;;;;;29.77;20.57;;;;;;;-2.42;100.00;99388.88;5096064;28;20209;-72
2022/01/15 08:50:47;;;;;;;30.50;21.03;;;;;;;-2.32;100.00;99384.59;5095598;28;20255;-72
2022/01/15 08:53:16;;;;;;;31.47;20.77;;;;;;;-2.25;100.00;99383.72;5097007;28;20596;-72
2022/01/15 08:55:43;;;;;;;30.93;21.13;;;;;;;-2.17;100.00;99382.00;5096300;28;20214;-72
2022/01/15 08:58:10;;;;;;;31.67;22.17;;;;;;;-2.10;100.00;99381.13;5096126;28;20216;-72
2022/01/15 09:00:37;;;;;;;34.47;21.47;;;;;;;-2.08;100.00;99379.44;5097727;28;20586;-72
2022/01/15 09:03:06;;;;;;;32.83;21.43;;;;;;;-2.03;100.00;99383.72;5096982;28;20237;-72
2022/01/15 09:05:34;;;;;;;34.83;21.87;;;;;;;-1.96;100.00;99377.69;5095994;28;20220;-72
2022/01/15 09:08:02;;;;;;;33.37;20.97;;;;;;;-1.88;100.00;99375.09;5097009;28;20215;-73
2022/01/15 09:10:28;;;;;;;30.63;21.70;;;;;;;-1.79;100.00;99381.13;5097298;28;20227;-73
2022/01/15 09:12:55;;;;;;;34.43;21.83;;;;;;;-1.74;100.00;99382.00;5096298;28;20223;-72
2022/01/15 09:15:22;;;;;;;31.37;20.77;;;;;;;-1.62;100.00;99384.56;5101028;28;20594;-71
2022/01/15 09:17:48;;;;;;;28.57;21.17;;;;;;;-1.68;100.00;99381.13;5092116;28;20698;-71
2022/01/15 09:20:15;;;;;;;30.53;20.50;;;;;;;-1.76;100.00;99372.50;5094649;28;20774;-72
2022/01/15 09:22:42;;;;;;;31.37;20.40;;;;;;;-1.79;100.00;99372.53;5108490;28;20211;-74
2022/01/15 09:25:12;;;;;;;29.33;20.33;;;;;;;-1.84;100.00;99374.25;5097520;28;20248;-73
2022/01/15 09:30:22;;;;;;;28.90;20.60;;;;;;;-1.83;100.00;99376.81;5091721;28;20378;-73
2022/01/15 09:32:51;;;;;;;29.70;20.63;;;;;;;-1.85;100.00;99372.53;5091793;28;20213;-75
2022/01/15 09:35:20;;;;;;;31.37;21.57;;;;;;;-1.77;100.00;99375.97;5093376;28;20216;-74
2022/01/15 09:37:49;;;;;;;36.40;22.67;;;;;;;-1.77;100.00;99378.56;5093014;28;20213;-74
2022/01/15 09:40:18;;;;;;;33.20;21.83;;;;;;;-1.74;100.00;99370.75;5092748;28;20221;-77
2022/01/15 09:42:47;;;;;;;33.73;22.57;;;;;;;-1.69;100.00;99379.41;5091414;28;20295;-74
2022/01/15 09:45:15;;;;;;;38.00;24.07;;;;;;;-1.55;100.00;99375.91;5093126;28;20224;-74
2022/01/15 09:47:42;;;;;;;35.63;22.73;;;;;;;-1.46;100.00;99373.31;5092718;28;20218;-74
2022/01/15 09:50:12;;;;;;;41.03;24.57;;;;;;;-1.36;100.00;99369.81;5092638;28;20241;-74
2022/01/15 09:52:39;;;;;;;37.43;25.43;;;;;;;-1.22;100.00;99373.22;5092623;28;20698;-74
2022/01/15 09:55:09;;;;;;;39.80;24.50;;;;;;;-1.22;100.00;99369.78;5092941;28;20302;-75
2022/01/15 09:57:39;;;;;;;39.77;25.07;;;;;;;-1.19;100.00;99361.97;5092894;28;20228;-74
2022/01/15 10:00:09;;;;;;;36.17;24.50;;;;;;;-1.16;100.00;99362.00;5089586;28;20214;-74
2022/01/15 10:02:38;;;;;;;41.17;25.60;;;;;;;-1.08;100.00;99357.63;5091848;28;20215;-74
2022/01/15 10:05:05;;;;;;;40.37;25.67;;;;;;;-0.98;100.00;99359.31;5092152;28;20215;-74
2022/01/15 10:07:31;;;;;;;37.90;25.87;;;;;;;-0.93;100.00;99357.59;5090934;28;20222;-74
2022/01/15 10:10:13;;;;;;;38.80;25.23;;;;;;;-0.87;100.00;99360.16;5091449;28;20263;-73
2022/01/15 10:12:42;;;;;;;41.57;24.77;;;;;;;-0.82;100.00;99360.97;5107470;28;20270;-74
2022/01/15 10:15:10;;;;;;;38.67;24.50;;;;;;;-0.76;100.00;99358.34;5092017;28;20679;-73
2022/01/15 10:17:38;;;;;;;38.07;24.93;;;;;;;-0.68;100.00;99354.00;5092638;28;20213;-74
2022/01/15 10:20:09;;;;;;;35.07;24.37;;;;;;;-0.64;100.00;99348.75;5092173;28;20218;-75
2022/01/15 10:22:40;;;;;;;40.23;24.37;;;;;;;-0.55;100.00;99343.50;5092933;28;20214;-74
2022/01/15 10:25:10;;;;;;;38.30;24.87;;;;;;;-0.47;100.00;99346.94;5092760;28;20227;-70
2022/01/15 10:27:38;;;;;;;38.87;25.77;;;;;;;-0.47;100.00;99340.88;5092622;28;20300;-68
2022/01/15 10:30:09;;;;;;;40.50;26.90;;;;;;;-0.39;100.00;99337.34;5093574;28;20608;-68
2022/01/15 10:32:37;;;;;;;38.80;25.73;;;;;;;-0.31;100.00;99332.09;5096268;28;20217;-68
2022/01/15 10:35:12;;;;;;;44.37;28.03;;;;;;;-0.18;100.00;99338.94;5094375;28;20618;-67
2022/01/15 10:37:48;;;;;;;41.87;27.10;;;;;;;-0.10;100.00;99333.66;5095556;28;20220;-67
2022/01/15 10:40:15;;;;;;;40.57;26.90;;;;;;;-0.07;100.00;99328.44;5096697;28;20217;-67
2022/01/15 10:42:42;;;;;;;38.87;25.77;;;;;;;-0.02;100.00;99325.78;5096252;28;20210;-68
2022/01/15 10:45:13;;;;;;;37.77;25.33;;;;;;;0.01;100.00;99326.63;5095072;28;20248;-67
2022/01/15 10:47:46;;;;;;;40.90;26.53;;;;;;;0.07;100.00;99321.38;5095982;28;20214;-68
2022/01/15 10:50:20;;;;;;;38.23;25.10;;;;;;;0.09;100.00;99314.44;5097851;28;20237;-68
2022/01/15 10:52:47;;;;;;;39.47;26.47;;;;;;;0.11;100.00;99312.69;5095860;28;20318;-68
2022/01/15 10:55:15;;;;;;;35.17;25.13;;;;;;;0.11;100.00;99311.81;5096888;28;20229;-68
2022/01/15 10:57:43;;;;;;;37.33;26.67;;;;;;;0.16;100.00;99304.84;5096911;28;20229;-68
2022/01/15 11:00:21;;;;;;;37.17;25.40;;;;;;;0.20;100.00;99297.00;5111514;28;20207;-68
2022/01/15 11:02:49;;;;;;;36.50;24.50;;;;;;;0.20;100.00;99297.00;5111326;28;20595;-69
2022/01/15 11:05:33;;;;;;;35.33;24.27;;;;;;;0.16;100.00;99284.91;5112751;28;20221;-69
2022/01/15 11:08:13;;;;;;;38.07;25.13;;;;;;;0.20;100.00;99285.75;5098377;28;20217;-69
2022/01/15 11:10:44;;;;;;;38.17;25.77;;;;;;;0.20;100.00;99286.59;5096576;28;20229;-69
2022/01/15 11:13:12;;;;;;;34.10;24.37;;;;;;;0.22;100.00;99290.06;5096390;28;20241;-68
2022/01/15 11:15:42;;;;;;;35.53;23.73;;;;;;;0.26;100.00;99283.94;5097344;28;20221;-69
2022/01/15 11:18:14;;;;;;;39.60;25.70;;;;;;;0.30;100.00;99287.34;5095943;28;20211;-68
2022/01/15 11:20:46;;;;;;;34.17;24.30;;;;;;;0.25;100.00;99274.41;5096254;28;20215;-69
2022/01/15 11:23:13;;;;;;;33.83;23.97;;;;;;;0.23;100.00;99276.19;5096300;28;20225;-68
2022/01/15 11:25:40;;;;;;;37.37;23.90;;;;;;;0.24;100.00;99280.50;5108433;28;20214;-68
2022/01/15 11:28:07;;;;;;;36.80;25.93;;;;;;;0.26;100.00;99278.72;5094390;28;20219;-69
2022/01/15 11:30:34;;;;;;;39.63;26.37;;;;;;;0.32;100.00;99281.25;5096073;28;20247;-68